sensor_id;sensor_type;location;lat;lon;timestamp;pressure;altitude;pressure_sealevel;temperature;humidity
77410;BME280;66481;51.332;22.804;2023-11-18T00:01:11;99671.78;;;-0.42;100.00
77410;BME280;66481;51.332;22.804;2023-11-18T00:05:19;99680.31;;;-0.36;100.00
77410;BME280;66481;51.332;22.804;2023-11-18T00:09:20;99679.59;;;-0.42;100.00
77410;BME280;66481;51.332;22.804;2023-11-18T00:13:21;99679.50;;;-0.39;100.00
77410;BME280;66481;51.332;22.804;2023-11-18T00:17:22;99680.47;;;-0.41;100.00
77410;BME280;66481;51.332;22.804;2023-11-18T00:21:23;99686.47;;;-0.39;100.00
77410;BME280;66481;51.332;22.804;2023-11-18T00:25:25;99686.50;;;-0.41;100.00
77410;BME280;66481;51.332;22.804;2023-11-18T00:29:27;99689.94;;;-0.40;100.00
77410;BME280;66481;51.332;22.804;2023-11-18T00:33:31;99698.56;;;-0.38;100.00
77410;BME280;66481;51.332;22.804;2023-11-18T00:37:32;99705.66;;;-0.43;100.00
77410;BME280;66481;51.332;22.804;2023-11-18T00:41:33;99706.38;;;-0.38;100.00
77410;BME280;66481;51.332;22.804;2023-11-18T00:45:37;99705.53;;;-0.40;100.00
77410;BME280;66481;51.332;22.804;2023-11-18T00:49:38;99714.22;;;-0.40;100.00
77410;BME280;66481;51.332;22.804;2023-11-18T00:53:40;99713.44;;;-0.43;100.00
77410;BME280;66481;51.332;22.804;2023-11-18T00:57:41;99725.28;;;-0.33;100.00
77410;BME280;66481;51.332;22.804;2023-11-18T01:01:43;99718.44;;;-0.37;100.00
77410;BME280;66481;51.332;22.804;2023-11-18T01:05:44;99715.09;;;-0.41;100.00
77410;BME280;66481;51.332;22.804;2023-11-18T01:09:45;99716.03;;;-0.43;100.00
77410;BME280;66481;51.332;22.804;2023-11-18T01:13:47;99712.59;;;-0.45;100.00
77410;BME280;66481;51.332;22.804;2023-11-18T01:17:48;99712.59;;;-0.45;100.00
77410;BME280;66481;51.332;22.804;2023-11-18T01:21:49;99709.16;;;-0.46;100.00
77410;BME280;66481;51.332;22.804;2023-11-18T01:25:52;99704.00;;;-0.47;100.00
77410;BME280;66481;51.332;22.804;2023-11-18T01:29:54;99705.94;;;-0.54;100.00
77410;BME280;66481;51.332;22.804;2023-11-18T01:33:55;99712.81;;;-0.51;100.00
77410;BME280;66481;51.332;22.804;2023-11-18T01:37:57;99710.13;;;-0.48;100.00
77410;BME280;66481;51.332;22.804;2023-11-18T01:41:58;99707.59;;;-0.51;100.00
77410;BME280;66481;51.332;22.804;2023-11-18T01:46:05;99717.97;;;-0.50;100.00
77410;BME280;66481;51.332;22.804;2023-11-18T01:50:10;99722.16;;;-0.46;100.00
77410;BME280;66481;51.332;22.804;2023-11-18T01:54:13;99718.81;;;-0.49;100.00
77410;BME280;66481;51.332;22.804;2023-11-18T01:58:20;99720.59;;;-0.51;100.00
77410;BME280;66481;51.332;22.804;2023-11-18T02:02:23;99731.72;;;-0.46;100.00
77410;BME280;66481;51.332;22.804;2023-11-18T02:06:26;99726.72;;;-0.54;100.00
77410;BME280;66481;51.332;22.804;2023-11-18T02:10:28;99733.72;;;-0.56;100.00
77410;BME280;66481;51.332;22.804;2023-11-18T02:14:31;99744.06;;;-0.54;100.00
77410;BME280;66481;51.332;22.804;2023-11-18T02:18:35;99733.78;;;-0.59;100.00
77410;BME280;66481;51.332;22.804;2023-11-18T02:22:44;99734.50;;;-0.54;100.00
77410;BME280;66481;51.332;22.804;2023-11-18T02:26:48;99732.91;;;-0.58;100.00
77410;BME280;66481;51.332;22.804;2023-11-18T02:30:59;99739.75;;;-0.55;100.00
77410;BME280;66481;51.332;22.804;2023-11-18T02:35:22;99744.16;;;-0.58;100.00
77410;BME280;66481;51.332;22.804;2023-11-18T02:39:35;99735.59;;;-0.61;100.00
77410;BME280;66481;51.332;22.804;2023-11-18T02:43:40;99746.03;;;-0.63;100.00
77410;BME280;66481;51.332;22.804;2023-11-18T02:47:45;99745.13;;;-0.62;100.00
77410;BME280;66481;51.332;22.804;2023-11-18T02:51:46;99752.91;;;-0.60;100.00
77410;BME280;66481;51.332;22.804;2023-11-18T02:55:48;99747.94;;;-0.69;100.00
77410;BME280;66481;51.332;22.804;2023-11-18T02:59:49;99754.81;;;-0.67;100.00
77410;BME280;66481;51.332;22.804;2023-11-18T03:03:50;99759.94;;;-0.64;100.00
77410;BME280;66481;51.332;22.804;2023-11-18T03:07:51;99759.06;;;-0.64;100.00
77410;BME280;66481;51.332;22.804;2023-11-18T03:11:54;99762.53;;;-0.64;100.00
77410;BME280;66481;51.332;22.804;2023-11-18T03:15:55;99762.56;;;-0.65;100.00
77410;BME280;66481;51.332;22.804;2023-11-18T03:19:57;99769.59;;;-0.69;100.00
77410;BME280;66481;51.332;22.804;2023-11-18T03:23:58;99766.81;;;-0.63;100.00
77410;BME280;66481;51.332;22.804;2023-11-18T03:27:59;99777.19;;;-0.63;100.00
77410;BME280;66481;51.332;22.804;2023-11-18T03:32:00;99781.59;;;-0.65;100.00
77410;BME280;66481;51.332;22.804;2023-11-18T03:36:01;99774.72;;;-0.66;100.00
77410;BME280;66481;51.332;22.804;2023-11-18T03:40:02;99771.31;;;-0.69;100.00
77410;BME280;66481;51.332;22.804;2023-11-18T03:44:04;99782.41;;;-0.63;100.00
77410;BME280;66481;51.332;22.804;2023-11-18T03:48:05;99776.47;;;-0.68;100.00
77410;BME280;66481;51.332;22.804;2023-11-18T03:52:07;99772.16;;;-0.67;100.00
77410;BME280;66481;51.332;22.804;2023-11-18T03:56:08;99774.78;;;-0.69;100.00
77410;BME280;66481;51.332;22.804;2023-11-18T04:00:10;99779.19;;;-0.71;100.00
77410;BME280;66481;51.332;22.804;2023-11-18T04:04:12;99785.22;;;-0.70;100.00
77410;BME280;66481;51.332;22.804;2023-11-18T04:08:13;99792.06;;;-0.68;100.00
77410;BME280;66481;51.332;22.804;2023-11-18T04:12:14;99797.25;;;-0.68;100.00
77410;BME280;66481;51.332;22.804;2023-11-18T04:16:17;99805.00;;;-0.66;100.00
77410;BME280;66481;51.332;22.804;2023-11-18T04:20:18;99808.38;;;-0.63;100.00
77410;BME280;66481;51.332;22.804;2023-11-18T04:24:19;99799.78;;;-0.65;100.00
77410;BME280;66481;51.332;22.804;2023-11-18T04:28:20;99807.56;;;-0.65;100.00
77410;BME280;66481;51.332;22.804;2023-11-18T04:32:21;99795.66;;;-0.72;100.00
77410;BME280;66481;51.332;22.804;2023-11-18T04:36:22;99798.16;;;-0.69;100.00
77410;BME280;66481;51.332;22.804;2023-11-18T04:40:23;99793.81;;;-0.68;100.00
77410;BME280;66481;51.332;22.804;2023-11-18T04:44:24;99798.28;;;-0.73;100.00
77410;BME280;66481;51.332;22.804;2023-11-18T04:48:25;99810.34;;;-0.71;100.00
77410;BME280;66481;51.332;22.804;2023-11-18T04:52:26;99803.38;;;-0.69;100.00
77410;BME280;66481;51.332;22.804;2023-11-18T04:56:27;99811.94;;;-0.65;100.00
77410;BME280;66481;51.332;22.804;2023-11-18T05:00:28;99819.75;;;-0.67;100.00
77410;BME280;66481;51.332;22.804;2023-11-18T05:04:29;99814.66;;;-0.71;100.00
77410;BME280;66481;51.332;22.804;2023-11-18T05:08:30;99812.88;;;-0.69;100.00
77410;BME280;66481;51.332;22.804;2023-11-18T05:12:32;99823.25;;;-0.68;100.00
77410;BME280;66481;51.332;22.804;2023-11-18T05:16:33;99817.19;;;-0.68;100.00
77410;BME280;66481;51.332;22.804;2023-11-18T05:20:34;99823.25;;;-0.68;100.00
77410;BME280;66481;51.332;22.804;2023-11-18T05:24:37;99829.22;;;-0.64;100.00
77410;BME280;66481;51.332;22.804;2023-11-18T05:28:38;99821.56;;;-0.69;100.00
77410;BME280;66481;51.332;22.804;2023-11-18T05:32:39;99829.38;;;-0.70;100.00
77410;BME280;66481;51.332;22.804;2023-11-18T05:36:41;99831.19;;;-0.72;100.00
77410;BME280;66481;51.332;22.804;2023-11-18T05:40:42;99836.19;;;-0.66;100.00
77410;BME280;66481;51.332;22.804;2023-11-18T05:44:51;99834.38;;;-0.63;100.00
77410;BME280;66481;51.332;22.804;2023-11-18T05:49:03;99838.06;;;-0.71;100.00
77410;BME280;66481;51.332;22.804;2023-11-18T05:53:09;99844.00;;;-0.66;100.00
77410;BME280;66481;51.332;22.804;2023-11-18T05:57:10;99839.75;;;-0.69;100.00
77410;BME280;66481;51.332;22.804;2023-11-18T06:01:13;99848.34;;;-0.67;100.00
77410;BME280;66481;51.332;22.804;2023-11-18T06:05:15;99853.66;;;-0.71;100.00
77410;BME280;66481;51.332;22.804;2023-11-18T06:09:16;99853.69;;;-0.73;100.00
77410;BME280;66481;51.332;22.804;2023-11-18T06:13:22;99869.16;;;-0.68;100.00
77410;BME280;66481;51.332;22.804;2023-11-18T06:17:25;99869.13;;;-0.67;100.00
77410;BME280;66481;51.332;22.804;2023-11-18T06:21:26;99881.25;;;-0.66;100.00
77410;BME280;66481;51.332;22.804;2023-11-18T06:25:31;99886.34;;;-0.63;100.00
77410;BME280;66481;51.332;22.804;2023-11-18T06:29:32;99877.81;;;-0.68;100.00
77410;BME280;66481;51.332;22.804;2023-11-18T06:33:36;99888.78;;;-0.57;100.00
77410;BME280;66481;51.332;22.804;2023-11-18T06:37:37;99890.44;;;-0.54;100.00
77410;BME280;66481;51.332;22.804;2023-11-18T06:41:38;99886.28;;;-0.60;100.00
77410;BME280;66481;51.332;22.804;2023-11-18T06:45:49;99886.28;;;-0.60;100.00
77410;BME280;66481;51.332;22.804;2023-11-18T06:49:50;99897.44;;;-0.56;100.00
77410;BME280;66481;51.332;22.804;2023-11-18T06:53:56;99909.38;;;-0.49;100.00
77410;BME280;66481;51.332;22.804;2023-11-18T06:57:58;99910.00;;;-0.39;100.00
77410;BME280;66481;51.332;22.804;2023-11-18T07:01:59;99910.94;;;-0.42;100.00
77410;BME280;66481;51.332;22.804;2023-11-18T07:06:00;99919.06;;;-0.21;100.00
77410;BME280;66481;51.332;22.804;2023-11-18T07:10:01;99918.28;;;-0.25;100.00
77410;BME280;66481;51.332;22.804;2023-11-18T07:14:02;99920.72;;;-0.17;100.00
77410;BME280;66481;51.332;22.804;2023-11-18T07:18:04;99926.72;;;-0.15;100.00
77410;BME280;66481;51.332;22.804;2023-11-18T07:22:05;99913.03;;;-0.22;100.00
77410;BME280;66481;51.332;22.804;2023-11-18T07:26:07;99923.03;;;-0.06;100.00
77410;BME280;66481;51.332;22.804;2023-11-18T07:30:10;99922.91;;;-0.02;100.00
77410;BME280;66481;51.332;22.804;2023-11-18T07:34:12;99923.34;;;0.14;100.00
77410;BME280;66481;51.332;22.804;2023-11-18T07:38:13;99928.25;;;0.25;100.00
77410;BME280;66481;51.332;22.804;2023-11-18T07:42:14;99930.50;;;0.37;100.00
77410;BME280;66481;51.332;22.804;2023-11-18T07:46:16;99918.91;;;0.48;100.00
77410;BME280;66481;51.332;22.804;2023-11-18T07:50:18;99931.81;;;0.52;100.00
77410;BME280;66481;51.332;22.804;2023-11-18T07:54:20;99917.03;;;0.53;100.00
77410;BME280;66481;51.332;22.804;2023-11-18T07:58:21;99921.75;;;0.70;100.00
77410;BME280;66481;51.332;22.804;2023-11-18T08:02:23;99916.59;;;0.68;100.00
77410;BME280;66481;51.332;22.804;2023-11-18T08:06:25;99921.63;;;0.74;100.00
77410;BME280;66481;51.332;22.804;2023-11-18T08:10:27;99911.50;;;0.64;100.00
77410;BME280;66481;51.332;22.804;2023-11-18T08:14:29;99918.47;;;0.63;100.00
77410;BME280;66481;51.332;22.804;2023-11-18T08:18:30;99917.59;;;0.64;100.00
77410;BME280;66481;51.332;22.804;2023-11-18T08:22:32;99915.91;;;0.62;100.00
77410;BME280;66481;51.332;22.804;2023-11-18T08:26:35;99919.56;;;0.84;100.00
77410;BME280;66481;51.332;22.804;2023-11-18T08:30:39;99923.59;;;0.94;100.00
77410;BME280;66481;51.332;22.804;2023-11-18T08:34:41;99918.47;;;0.91;100.00
77410;BME280;66481;51.332;22.804;2023-11-18T08:38:42;99926.84;;;1.03;100.00
77410;BME280;66481;51.332;22.804;2023-11-18T08:42:47;99926.13;;;1.24;100.00
77410;BME280;66481;51.332;22.804;2023-11-18T08:46:52;99915.56;;;1.29;100.00
77410;BME280;66481;51.332;22.804;2023-11-18T08:50:53;99932.13;;;1.55;100.00
77410;BME280;66481;51.332;22.804;2023-11-18T08:54:55;99929.63;;;1.52;100.00
77410;BME280;66481;51.332;22.804;2023-11-18T08:59:19;99919.75;;;1.61;100.00
77410;BME280;66481;51.332;22.804;2023-11-18T09:03:26;99914.19;;;1.45;100.00
77410;BME280;66481;51.332;22.804;2023-11-18T09:07:35;99915.78;;;1.49;100.00
77410;BME280;66481;51.332;22.804;2023-11-18T09:11:38;99913.53;;;1.39;100.00
77410;BME280;66481;51.332;22.804;2023-11-18T09:15:42;99911.47;;;1.48;100.00
77410;BME280;66481;51.332;22.804;2023-11-18T09:19:43;99911.41;;;1.50;100.00
77410;BME280;66481;51.332;22.804;2023-11-18T09:23:46;99912.09;;;1.55;100.00
77410;BME280;66481;51.332;22.804;2023-11-18T09:27:50;99906.16;;;1.52;100.00
77410;BME280;66481;51.332;22.804;2023-11-18T09:31:52;99906.75;;;1.60;100.00
77410;BME280;66481;51.332;22.804;2023-11-18T09:35:54;99899.56;;;1.40;100.00
77410;BME280;66481;51.332;22.804;2023-11-18T09:39:59;99898.13;;;1.31;100.00
77410;BME280;66481;51.332;22.804;2023-11-18T09:44:12;99908.88;;;1.22;100.00
77410;BME280;66481;51.332;22.804;2023-11-18T09:48:18;99911.38;;;1.25;100.00
77410;BME280;66481;51.332;22.804;2023-11-18T09:52:21;99903.69;;;1.20;100.00
77410;BME280;66481;51.332;22.804;2023-11-18T09:57:05;99900.34;;;1.17;100.00
77410;BME280;66481;51.332;22.804;2023-11-18T10:01:14;99910.19;;;1.07;100.00
77410;BME280;66481;51.332;22.804;2023-11-18T10:05:20;99904.09;;;1.08;100.00
77410;BME280;66481;51.332;22.804;2023-11-18T10:09:24;99910.50;;;1.24;100.00
77410;BME280;66481;51.332;22.804;2023-11-18T10:13:40;99905.19;;;1.27;100.00
77410;BME280;66481;51.332;22.804;2023-11-18T10:17:45;99904.44;;;1.24;100.00
77410;BME280;66481;51.332;22.804;2023-11-18T10:22:21;99908.94;;;1.19;100.00
77410;BME280;66481;51.332;22.804;2023-11-18T10:26:24;99916.47;;;1.28;100.00
77410;BME280;66481;51.332;22.804;2023-11-18T10:30:26;99913.31;;;1.18;100.00
77410;BME280;66481;51.332;22.804;2023-11-18T10:34:27;99921.50;;;1.07;100.00
77410;BME280;66481;51.332;22.804;2023-11-18T10:38:30;99910.00;;;1.13;100.00
77410;BME280;66481;51.332;22.804;2023-11-18T10:42:31;99920.22;;;1.19;100.00
77410;BME280;66481;51.332;22.804;2023-11-18T10:46:33;99920.53;;;1.10;100.00
77410;BME280;66481;51.332;22.804;2023-11-18T10:50:35;99920.47;;;1.11;100.00
77410;BME280;66481;51.332;22.804;2023-11-18T10:54:37;99914.91;;;0.96;100.00
77410;BME280;66481;51.332;22.804;2023-11-18T10:58:38;99928.72;;;0.98;100.00
77410;BME280;66481;51.332;22.804;2023-11-18T11:02:42;99919.31;;;0.93;100.00
77410;BME280;66481;51.332;22.804;2023-11-18T11:06:47;99919.53;;;0.86;100.00
77410;BME280;66481;51.332;22.804;2023-11-18T11:10:56;99918.78;;;0.82;100.00
77410;BME280;66481;51.332;22.804;2023-11-18T11:15:09;99934.94;;;0.93;100.00
77410;BME280;66481;51.332;22.804;2023-11-18T11:19:34;99932.44;;;0.90;100.00
77410;BME280;66481;51.332;22.804;2023-11-18T11:28:11;99926.47;;;0.87;100.00
77410;BME280;66481;51.332;22.804;2023-11-18T11:32:32;99948.47;;;1.05;100.00
77410;BME280;66481;51.332;22.804;2023-11-18T11:36:46;99953.59;;;1.08;100.00
77410;BME280;66481;51.332;22.804;2023-11-18T11:40:53;99946.41;;;1.16;100.00
77410;BME280;66481;51.332;22.804;2023-11-18T11:44:56;99959.38;;;1.18;100.00
77410;BME280;66481;51.332;22.804;2023-11-18T11:49:02;99941.00;;;0.94;100.00
77410;BME280;66481;51.332;22.804;2023-11-18T11:53:24;99953.78;;;1.02;100.00
77410;BME280;66481;51.332;22.804;2023-11-18T11:57:32;99939.16;;;0.98;100.00
77410;BME280;66481;51.332;22.804;2023-11-18T12:01:36;99942.59;;;0.98;100.00
77410;BME280;66481;51.332;22.804;2023-11-18T12:05:40;99956.38;;;1.02;100.00
77410;BME280;66481;51.332;22.804;2023-11-18T12:09:47;99952.59;;;0.84;100.00
77410;BME280;66481;51.332;22.804;2023-11-18T12:14:08;99966.47;;;0.84;100.00
77410;BME280;66481;51.332;22.804;2023-11-18T12:18:33;99964.56;;;0.89;100.00
77410;BME280;66481;51.332;22.804;2023-11-18T12:23:04;99969.06;;;0.84;100.00
77410;BME280;66481;51.332;22.804;2023-11-18T12:27:43;99973.50;;;0.81;100.00
77410;BME280;66481;51.332;22.804;2023-11-18T12:31:49;99972.91;;;0.71;100.00
77410;BME280;66481;51.332;22.804;2023-11-18T12:40:55;99986.06;;;0.68;100.00
77410;BME280;66481;51.332;22.804;2023-11-18T12:49:46;100002.97;;;0.83;100.00
77410;BME280;66481;51.332;22.804;2023-11-18T12:53:55;100002.38;;;0.74;100.00
77410;BME280;66481;51.332;22.804;2023-11-18T12:57:59;100018.63;;;0.81;100.00
77410;BME280;66481;51.332;22.804;2023-11-18T13:02:00;100022.91;;;0.84;100.00
77410;BME280;66481;51.332;22.804;2023-11-18T13:06:05;100022.00;;;0.85;100.00
77410;BME280;66481;51.332;22.804;2023-11-18T13:10:07;100035.00;;;0.86;100.00
77410;BME280;66481;51.332;22.804;2023-11-18T13:14:08;100044.59;;;0.84;100.00
77410;BME280;66481;51.332;22.804;2023-11-18T13:18:10;100038.81;;;0.74;100.00
77410;BME280;66481;51.332;22.804;2023-11-18T13:22:13;100043.97;;;0.76;100.00
77410;BME280;66481;51.332;22.804;2023-11-18T13:26:14;100058.09;;;0.67;100.00
77410;BME280;66481;51.332;22.804;2023-11-18T13:30:17;100060.81;;;0.64;100.00
77410;BME280;66481;51.332;22.804;2023-11-18T13:34:19;100072.06;;;0.65;100.00
77410;BME280;66481;51.332;22.804;2023-11-18T13:38:21;100069.66;;;0.57;100.00
77410;BME280;66481;51.332;22.804;2023-11-18T13:42:23;100085.19;;;0.60;100.00
77410;BME280;66481;51.332;22.804;2023-11-18T13:46:25;100094.72;;;0.61;100.00
77410;BME280;66481;51.332;22.804;2023-11-18T13:50:26;100090.41;;;0.60;100.00
77410;BME280;66481;51.332;22.804;2023-11-18T13:54:28;100093.97;;;0.58;100.00
77410;BME280;66481;51.332;22.804;2023-11-18T13:58:30;100099.25;;;0.54;100.00
77410;BME280;66481;51.332;22.804;2023-11-18T14:02:31;100097.78;;;0.44;100.00
77410;BME280;66481;51.332;22.804;2023-11-18T14:06:32;100102.25;;;0.39;100.00
77410;BME280;66481;51.332;22.804;2023-11-18T14:10:33;100117.00;;;0.39;100.00
77410;BME280;66481;51.332;22.804;2023-11-18T14:14:34;100118.06;;;0.31;100.00
77410;BME280;66481;51.332;22.804;2023-11-18T14:18:35;100121.69;;;0.24;100.00
77410;BME280;66481;51.332;22.804;2023-11-18T14:22:37;100126.81;;;0.27;100.00
77410;BME280;66481;51.332;22.804;2023-11-18T14:26:40;100132.97;;;0.25;100.00
77410;BME280;66481;51.332;22.804;2023-11-18T14:30:42;100130.53;;;0.17;100.00
77410;BME280;66481;51.332;22.804;2023-11-18T14:34:43;100147.03;;;0.17;100.00
77410;BME280;66481;51.332;22.804;2023-11-18T14:38:44;100151.47;;;0.14;100.00
77410;BME280;66481;51.332;22.804;2023-11-18T14:48:24;100155.84;;;0.10;100.00
77410;BME280;66481;51.332;22.804;2023-11-18T14:52:28;100173.28;;;0.07;100.00
77410;BME280;66481;51.332;22.804;2023-11-18T14:56:29;100184.53;;;0.09;100.00
77410;BME280;66481;51.332;22.804;2023-11-18T15:00:31;100174.00;;;0.13;100.00
77410;BME280;66481;51.332;22.804;2023-11-18T15:04:34;100183.63;;;0.10;100.00
77410;BME280;66481;51.332;22.804;2023-11-18T15:08:36;100192.38;;;0.07;100.00
77410;BME280;66481;51.332;22.804;2023-11-18T15:12:37;100196.59;;;0.11;100.00
77410;BME280;66481;51.332;22.804;2023-11-18T15:16:42;100194.88;;;0.10;100.00
77410;BME280;66481;51.332;22.804;2023-11-18T15:20:44;100210.59;;;0.07;100.00
77410;BME280;66481;51.332;22.804;2023-11-18T15:24:46;100215.88;;;0.03;100.00
77410;BME280;66481;51.332;22.804;2023-11-18T15:28:48;100217.69;;;-0.01;100.00
77410;BME280;66481;51.332;22.804;2023-11-18T15:32:50;100228.06;;;0.01;100.00
77410;BME280;66481;51.332;22.804;2023-11-18T15:36:53;100242.78;;;0.02;100.00
77410;BME280;66481;51.332;22.804;2023-11-18T15:40:54;100238.41;;;0.04;100.00
77410;BME280;66481;51.332;22.804;2023-11-18T15:44:55;100238.53;;;-0.03;100.00
77410;BME280;66481;51.332;22.804;2023-11-18T15:54:44;100250.69;;;-0.03;100.00
77410;BME280;66481;51.332;22.804;2023-11-18T15:58:45;100261.94;;;-0.03;100.00
77410;BME280;66481;51.332;22.804;2023-11-18T16:02:48;100280.16;;;-0.03;100.00
77410;BME280;66481;51.332;22.804;2023-11-18T16:06:50;100275.75;;;0.01;100.00
77410;BME280;66481;51.332;22.804;2023-11-18T16:10:51;100281.88;;;-0.02;100.00
77410;BME280;66481;51.332;22.804;2023-11-18T16:14:58;100287.13;;;-0.05;100.00
77410;BME280;66481;51.332;22.804;2023-11-18T16:19:02;100289.81;;;-0.08;100.00
77410;BME280;66481;51.332;22.804;2023-11-18T16:23:03;100297.56;;;-0.06;100.00
77410;BME280;66481;51.332;22.804;2023-11-18T16:27:05;100303.75;;;-0.10;100.00
77410;BME280;66481;51.332;22.804;2023-11-18T16:31:06;100306.38;;;-0.12;100.00
77410;BME280;66481;51.332;22.804;2023-11-18T16:35:09;100305.47;;;-0.11;100.00
77410;BME280;66481;51.332;22.804;2023-11-18T16:39:15;100302.06;;;-0.14;100.00
77410;BME280;66481;51.332;22.804;2023-11-18T16:43:17;100309.78;;;-0.10;100.00
77410;BME280;66481;51.332;22.804;2023-11-18T16:47:18;100313.25;;;-0.11;100.00
77410;BME280;66481;51.332;22.804;2023-11-18T16:51:19;100315.91;;;-0.12;100.00
77410;BME280;66481;51.332;22.804;2023-11-18T16:55:22;100323.78;;;-0.15;100.00
77410;BME280;66481;51.332;22.804;2023-11-18T16:59:23;100331.50;;;-0.12;100.00
77410;BME280;66481;51.332;22.804;2023-11-18T17:03:24;100328.13;;;-0.17;100.00
77410;BME280;66481;51.332;22.804;2023-11-18T17:07:26;100329.84;;;-0.16;100.00
77410;BME280;66481;51.332;22.804;2023-11-18T17:11:27;100340.22;;;-0.15;100.00
77410;BME280;66481;51.332;22.804;2023-11-18T17:15:29;100344.59;;;-0.15;100.00
77410;BME280;66481;51.332;22.804;2023-11-18T17:19:30;100338.59;;;-0.19;100.00
77410;BME280;66481;51.332;22.804;2023-11-18T17:23:31;100350.59;;;-0.12;100.00
77410;BME280;66481;51.332;22.804;2023-11-18T17:27:34;100346.31;;;-0.16;100.00
77410;BME280;66481;51.332;22.804;2023-11-18T17:31:37;100355.00;;;-0.15;100.00
77410;BME280;66481;51.332;22.804;2023-11-18T17:35:38;100357.59;;;-0.15;100.00
77410;BME280;66481;51.332;22.804;2023-11-18T17:39:41;100365.22;;;-0.08;100.00
77410;BME280;66481;51.332;22.804;2023-11-18T17:43:42;100376.31;;;0.02;100.00
77410;BME280;66481;51.332;22.804;2023-11-18T17:47:44;100371.91;;;0.06;100.00
77410;BME280;66481;51.332;22.804;2023-11-18T17:51:46;100372.91;;;0.00;100.00
77410;BME280;66481;51.332;22.804;2023-11-18T17:55:47;100375.63;;;-0.08;100.00
77410;BME280;66481;51.332;22.804;2023-11-18T17:59:48;100383.59;;;-0.15;100.00
77410;BME280;66481;51.332;22.804;2023-11-18T18:03:53;100368.84;;;-0.15;100.00
77410;BME280;66481;51.332;22.804;2023-11-18T18:07:54;100375.63;;;-0.08;100.00
77410;BME280;66481;51.332;22.804;2023-11-18T18:12:00;100367.84;;;-0.08;100.00
77410;BME280;66481;51.332;22.804;2023-11-18T18:16:01;100372.25;;;-0.11;100.00
77410;BME280;66481;51.332;22.804;2023-11-18T18:20:05;100385.31;;;-0.16;100.00
77410;BME280;66481;51.332;22.804;2023-11-18T18:24:09;100382.72;;;-0.16;100.00
77410;BME280;66481;51.332;22.804;2023-11-18T18:28:11;100393.94;;;-0.14;100.00
77410;BME280;66481;51.332;22.804;2023-11-18T18:32:13;100387.78;;;-0.08;100.00
77410;BME280;66481;51.332;22.804;2023-11-18T18:36:14;100386.88;;;-0.07;100.00
77410;BME280;66481;51.332;22.804;2023-11-18T18:40:15;100385.16;;;-0.05;100.00
77410;BME280;66481;51.332;22.804;2023-11-18T18:44:19;100380.75;;;-0.03;100.00
77410;BME280;66481;51.332;22.804;2023-11-18T18:48:20;100377.19;;;0.01;100.00
77410;BME280;66481;51.332;22.804;2023-11-18T18:52:22;100375.53;;;-0.02;100.00
77410;BME280;66481;51.332;22.804;2023-11-18T18:56:23;100371.19;;;-0.01;100.00
77410;BME280;66481;51.332;22.804;2023-11-18T19:00:25;100379.84;;;-0.02;100.00
77410;BME280;66481;51.332;22.804;2023-11-18T19:04:26;100375.59;;;-0.05;100.00
77410;BME280;66481;51.332;22.804;2023-11-18T19:08:29;100382.53;;;-0.05;100.00
77410;BME280;66481;51.332;22.804;2023-11-18T19:12:33;100381.69;;;-0.07;100.00
77410;BME280;66481;51.332;22.804;2023-11-18T19:16:35;100374.78;;;-0.08;100.00
77410;BME280;66481;51.332;22.804;2023-11-18T19:20:37;100377.50;;;-0.14;100.00
77410;BME280;66481;51.332;22.804;2023-11-18T19:24:38;100380.22;;;-0.19;100.00
77410;BME280;66481;51.332;22.804;2023-11-18T19:28:40;100381.97;;;-0.23;100.00
77410;BME280;66481;51.332;22.804;2023-11-18T19:32:44;100382.66;;;-0.13;100.00
77410;BME280;66481;51.332;22.804;2023-11-18T19:36:45;100394.03;;;-0.17;100.00
77410;BME280;66481;51.332;22.804;2023-11-18T19:40:47;100399.28;;;-0.20;100.00
77410;BME280;66481;51.332;22.804;2023-11-18T19:44:49;100398.31;;;-0.14;100.00
77410;BME280;66481;51.332;22.804;2023-11-18T19:48:56;100401.75;;;-0.14;100.00
77410;BME280;66481;51.332;22.804;2023-11-18T19:52:59;100394.00;;;-0.15;100.00
77410;BME280;66481;51.332;22.804;2023-11-18T19:57:02;100396.47;;;-0.09;100.00
77410;BME280;66481;51.332;22.804;2023-11-18T20:01:04;100391.25;;;-0.08;100.00
77410;BME280;66481;51.332;22.804;2023-11-18T20:05:06;100386.78;;;-0.01;100.00
77410;BME280;66481;51.332;22.804;2023-11-18T20:09:09;100388.47;;;0.02;100.00
77410;BME280;66481;51.332;22.804;2023-11-18T20:13:12;100372.13;;;-0.05;100.00
77410;BME280;66481;51.332;22.804;2023-11-18T20:17:13;100386.84;;;-0.04;100.00
77410;BME280;66481;51.332;22.804;2023-11-18T20:21:16;100386.88;;;-0.07;100.00
77410;BME280;66481;51.332;22.804;2023-11-18T20:25:18;100387.78;;;-0.07;100.00
77410;BME280;66481;51.332;22.804;2023-11-18T20:29:24;100393.63;;;0.03;100.00
77410;BME280;66481;51.332;22.804;2023-11-18T20:33:27;100391.97;;;0.01;100.00
77410;BME280;66481;51.332;22.804;2023-11-18T20:37:28;100389.41;;;-0.03;100.00
77410;BME280;66481;51.332;22.804;2023-11-18T20:41:30;100393.59;;;0.05;100.00
77410;BME280;66481;51.332;22.804;2023-11-18T20:45:31;100392.94;;;-0.05;100.00
77410;BME280;66481;51.332;22.804;2023-11-18T20:49:34;100391.25;;;-0.08;100.00
77410;BME280;66481;51.332;22.804;2023-11-18T20:53:35;100391.16;;;-0.02;100.00
77410;BME280;66481;51.332;22.804;2023-11-18T20:57:38;100379.00;;;-0.03;100.00
77410;BME280;66481;51.332;22.804;2023-11-18T21:01:40;100373.69;;;0.04;100.00
77410;BME280;66481;51.332;22.804;2023-11-18T21:05:41;100380.56;;;0.06;100.00
77410;BME280;66481;51.332;22.804;2023-11-18T21:09:43;100377.16;;;0.04;100.00
77410;BME280;66481;51.332;22.804;2023-11-18T21:13:44;100373.75;;;0.01;100.00
77410;BME280;66481;51.332;22.804;2023-11-18T21:17:46;100391.13;;;0.00;100.00
77410;BME280;66481;51.332;22.804;2023-11-18T21:21:50;100386.59;;;0.08;100.00